createdAt,value
2023-05-09T00:01:13.370Z,14.21
2023-05-09T00:16:20.873Z,14.11
2023-05-09T00:31:26.527Z,13.79
2023-05-09T00:46:32.392Z,13.43
2023-05-09T01:01:38.137Z,13.17
2023-05-09T01:16:54.357Z,13.10
2023-05-09T01:32:01.696Z,13.23
2023-05-09T01:47:09.196Z,13.45
2023-05-09T02:02:15.319Z,13.34
2023-05-09T02:17:21.927Z,13.29
2023-05-09T02:32:30.629Z,13.25
2023-05-09T02:47:36.434Z,13.12
2023-05-09T03:02:42.219Z,13.23
2023-05-09T03:17:48.019Z,13.20
2023-05-09T03:32:54.017Z,13.15
2023-05-09T03:47:59.804Z,13.18
2023-05-09T04:03:06.248Z,13.31
2023-05-09T04:18:12.261Z,13.48
2023-05-09T04:33:17.732Z,13.58
2023-05-09T04:48:23.260Z,13.55
2023-05-09T05:03:28.900Z,13.52
2023-05-09T05:18:35.219Z,13.78
2023-05-09T05:33:40.779Z,13.96
2023-05-09T05:48:46.295Z,14.41
2023-05-09T06:03:55.048Z,14.64
2023-05-09T06:19:00.757Z,14.85
2023-05-09T06:34:06.536Z,16.42
2023-05-09T06:49:14.120Z,16.87
2023-05-09T07:04:19.684Z,18.25
2023-05-09T07:19:25.354Z,19.01
2023-05-09T07:34:31.059Z,20.75
2023-05-09T07:49:36.949Z,20.64
2023-05-09T08:04:42.618Z,21.94
2023-05-09T08:19:48.166Z,21.94
2023-05-09T08:34:53.636Z,23.15
2023-05-09T08:49:59.261Z,23.69
2023-05-09T09:05:05.852Z,23.64
2023-05-09T09:20:15.835Z,23.45
2023-05-09T09:35:22.096Z,25.01
2023-05-09T09:50:27.648Z,24.56
2023-05-09T10:05:34.712Z,24.71
2023-05-09T10:20:41.449Z,23.80
2023-05-09T10:35:48.596Z,24.20
2023-05-09T10:50:54.900Z,23.76
2023-05-09T11:06:00.915Z,24.26
2023-05-09T11:21:11.094Z,25.43
2023-05-09T11:36:25.914Z,24.70
2023-05-09T11:51:31.451Z,25.17
2023-05-09T12:06:37.878Z,25.27
2023-05-09T12:21:43.924Z,24.13
2023-05-09T12:36:51.172Z,24.29
2023-05-09T12:51:58.685Z,23.60
2023-05-09T13:07:11.681Z,23.41
2023-05-09T13:22:18.023Z,23.36
2023-05-09T13:37:23.590Z,23.12
2023-05-09T13:52:29.185Z,20.78
2023-05-09T14:07:34.833Z,18.82
2023-05-09T14:22:40.478Z,19.16
2023-05-09T14:37:46.157Z,19.62
2023-05-09T14:52:53.077Z,17.53
2023-05-09T15:07:58.761Z,17.29
2023-05-09T15:23:07.055Z,17.01
2023-05-09T15:38:13.876Z,17.52
2023-05-09T15:53:19.381Z,18.08
2023-05-09T16:08:25.022Z,18.14
2023-05-09T16:23:30.638Z,18.06
2023-05-09T16:38:36.319Z,17.73
2023-05-09T16:53:41.890Z,17.74
2023-05-09T17:08:47.666Z,17.25
2023-05-09T17:23:54.509Z,16.52
2023-05-09T17:39:00.051Z,16.42
2023-05-09T17:54:05.861Z,16.05
2023-05-09T18:09:11.505Z,16.01
2023-05-09T18:24:17.255Z,15.26
2023-05-09T18:39:23.765Z,14.89
2023-05-09T18:54:29.534Z,14.81
2023-05-09T19:09:35.071Z,14.55
2023-05-09T19:24:41.295Z,14.48
2023-05-09T19:39:46.955Z,14.51
2023-05-09T19:54:52.732Z,14.50
2023-05-09T20:09:58.865Z,14.19
2023-05-09T20:25:04.487Z,14.28
2023-05-09T20:40:11.577Z,14.06
2023-05-09T20:55:17.625Z,14.06
2023-05-09T21:10:23.891Z,13.91
2023-05-09T21:25:29.586Z,14.03
2023-05-09T21:40:35.380Z,13.93
2023-05-09T21:55:41.240Z,13.89
2023-05-09T22:10:47.222Z,13.83
2023-05-09T22:25:52.642Z,13.61
2023-05-09T22:40:58.271Z,13.52
2023-05-09T22:56:04.331Z,13.47
2023-05-09T23:11:09.855Z,13.32
2023-05-09T23:26:15.455Z,13.31
2023-05-09T23:41:22.217Z,13.32
2023-05-09T23:56:27.920Z,13.16
